createdAt,value
2023-04-27T00:02:14.771Z,1.70
2023-04-27T00:04:43.358Z,1.70
2023-04-27T00:07:11.831Z,1.58
2023-04-27T00:09:39.735Z,1.75
2023-04-27T00:12:08.007Z,1.50
2023-04-27T00:14:37.255Z,2.17
2023-04-27T00:17:05.181Z,1.70
2023-04-27T00:19:33.728Z,2.05
2023-04-27T00:22:01.622Z,1.92
2023-04-27T00:24:29.662Z,2.33
2023-04-27T00:26:57.822Z,1.70
2023-04-27T00:29:25.836Z,1.80
2023-04-27T00:31:55.111Z,1.35
2023-04-27T00:34:23.714Z,1.70
2023-04-27T00:36:51.558Z,1.73
2023-04-27T00:39:21.364Z,2.13
2023-04-27T00:41:49.282Z,1.98
2023-04-27T00:44:23.884Z,1.40
2023-04-27T00:46:52.165Z,1.73
2023-04-27T00:49:22.445Z,1.60
2023-04-27T00:51:50.550Z,1.67
2023-04-27T00:54:20.984Z,1.90
2023-04-27T00:56:50.158Z,1.58
2023-04-27T00:59:18.447Z,2.08
2023-04-27T01:01:47.717Z,1.77
2023-04-27T01:04:17.042Z,1.52
2023-04-27T01:06:46.752Z,1.70
2023-04-27T01:09:16.502Z,1.55
2023-04-27T01:11:44.480Z,1.75
2023-04-27T01:14:12.501Z,1.60
2023-04-27T01:16:40.595Z,1.90
2023-04-27T01:19:10.834Z,1.67
2023-04-27T01:21:38.897Z,1.58
2023-04-27T01:24:09.668Z,1.33
2023-04-27T01:26:39.001Z,2.00
2023-04-27T01:29:06.908Z,1.40
2023-04-27T01:31:35.505Z,1.70
2023-04-27T01:34:03.502Z,1.80
2023-04-27T01:36:31.845Z,1.75
2023-04-27T01:38:59.802Z,1.83
2023-04-27T01:41:29.131Z,1.85
2023-04-27T01:43:57.459Z,1.50
2023-04-27T01:46:25.426Z,1.60
2023-04-27T01:48:53.421Z,1.50
2023-04-27T01:51:21.350Z,1.77
2023-04-27T01:53:49.493Z,1.70
2023-04-27T01:56:17.679Z,1.50
2023-04-27T01:58:47.234Z,1.48
2023-04-27T02:01:15.121Z,1.80
2023-04-27T02:03:43.259Z,1.55
2023-04-27T02:06:13.030Z,2.05
2023-04-27T02:08:41.006Z,1.80
2023-04-27T02:11:10.108Z,1.77
2023-04-27T02:13:38.029Z,1.73
2023-04-27T02:16:08.416Z,2.00
2023-04-27T02:18:36.360Z,2.00
2023-04-27T02:21:09.718Z,1.90
2023-04-27T02:23:38.010Z,1.95
2023-04-27T02:26:06.053Z,1.58
2023-04-27T02:28:34.009Z,2.15
2023-04-27T02:31:03.133Z,1.98
2023-04-27T02:33:33.064Z,1.42
2023-04-27T02:36:00.961Z,1.80
2023-04-27T02:38:30.679Z,1.75
2023-04-27T02:40:58.605Z,1.83
2023-04-27T02:43:28.046Z,1.83
2023-04-27T02:45:55.957Z,1.95
2023-04-27T02:48:23.946Z,1.50
2023-04-27T02:50:53.133Z,1.50
2023-04-27T02:53:21.019Z,2.25
2023-04-27T02:55:49.655Z,2.00
2023-04-27T02:58:17.945Z,1.70
2023-04-27T03:00:46.794Z,1.50
2023-04-27T03:03:16.285Z,1.60
2023-04-27T03:05:44.384Z,1.88
2023-04-27T03:08:13.647Z,1.92
2023-04-27T03:10:41.602Z,1.70
2023-04-27T03:13:11.038Z,1.40
2023-04-27T03:15:38.948Z,1.77
2023-04-27T03:18:07.310Z,1.60
2023-04-27T03:20:35.470Z,1.70
2023-04-27T03:23:03.319Z,1.67
2023-04-27T03:25:32.575Z,1.83
2023-04-27T03:28:00.707Z,2.28
2023-04-27T03:30:28.500Z,2.22
2023-04-27T03:32:56.417Z,2.17
2023-04-27T03:35:24.298Z,1.40
2023-04-27T03:37:52.127Z,2.10
2023-04-27T03:40:20.092Z,1.40
2023-04-27T03:42:49.415Z,2.00
2023-04-27T03:45:19.204Z,1.90
2023-04-27T03:47:47.205Z,1.77
2023-04-27T03:50:16.449Z,2.25
2023-04-27T03:52:44.394Z,1.73
2023-04-27T03:55:12.540Z,2.00
2023-04-27T03:57:43.001Z,2.10
2023-04-27T04:00:14.596Z,2.13
2023-04-27T04:02:43.036Z,1.92
2023-04-27T04:05:11.181Z,1.67
2023-04-27T04:07:39.257Z,1.95
2023-04-27T04:10:08.618Z,1.67
2023-04-27T04:12:38.228Z,1.92
2023-04-27T04:15:07.808Z,1.80
2023-04-27T04:17:37.144Z,1.70
2023-04-27T04:20:08.778Z,2.20
2023-04-27T04:22:36.666Z,1.90
2023-04-27T04:25:05.255Z,1.70
2023-04-27T04:27:33.568Z,1.67
2023-04-27T04:30:01.867Z,2.15
2023-04-27T04:32:31.227Z,1.90
2023-04-27T04:35:01.548Z,3.20
2023-04-27T04:37:30.436Z,1.60
2023-04-27T04:39:58.389Z,2.00
2023-04-27T04:42:27.663Z,1.83
2023-04-27T04:44:55.782Z,1.85
2023-04-27T04:47:23.724Z,1.92
2023-04-27T04:49:53.274Z,2.13
2023-04-27T04:52:22.690Z,2.00
2023-04-27T04:54:52.776Z,2.10
2023-04-27T04:57:22.362Z,1.90
2023-04-27T04:59:50.316Z,2.65
2023-04-27T05:02:18.195Z,1.88
2023-04-27T05:04:46.337Z,2.13
2023-04-27T05:07:15.242Z,2.25
2023-04-27T05:09:45.586Z,1.90
2023-04-27T05:12:13.412Z,2.40
2023-04-27T05:14:41.353Z,2.47
2023-04-27T05:17:09.205Z,2.65
2023-04-27T05:19:37.116Z,2.50
2023-04-27T05:22:05.031Z,2.30
2023-04-27T05:24:32.901Z,2.47
2023-04-27T05:27:02.555Z,4.05
2023-04-27T05:29:30.711Z,2.10
2023-04-27T05:31:58.972Z,2.42
2023-04-27T05:34:26.929Z,2.40
2023-04-27T05:36:54.804Z,2.30
2023-04-27T05:39:22.643Z,2.60
2023-04-27T05:41:50.521Z,2.50
2023-04-27T05:44:19.748Z,2.45
2023-04-27T05:46:47.627Z,2.38
2023-04-27T05:49:16.026Z,2.83
2023-04-27T05:51:44.001Z,2.75
2023-04-27T05:54:11.841Z,2.45
2023-04-27T05:56:39.693Z,2.40
2023-04-27T05:59:07.625Z,2.25
2023-04-27T06:01:36.863Z,2.38
2023-04-27T06:04:04.998Z,2.15
2023-04-27T06:06:33.989Z,2.17
2023-04-27T06:09:01.856Z,2.78
2023-04-27T06:11:29.724Z,2.20
2023-04-27T06:13:57.602Z,2.40
2023-04-27T06:16:25.587Z,2.42
2023-04-27T06:18:54.828Z,2.20
2023-04-27T06:21:22.695Z,1.90
2023-04-27T06:23:50.686Z,2.00
2023-04-27T06:26:18.784Z,1.55
2023-04-27T06:28:46.780Z,1.90
2023-04-27T06:31:15.249Z,2.28
2023-04-27T06:33:43.239Z,1.80
2023-04-27T06:36:12.536Z,1.75
2023-04-27T06:38:40.531Z,1.70
2023-04-27T06:41:08.413Z,1.70
2023-04-27T06:43:36.333Z,1.60
2023-04-27T06:46:04.580Z,2.10
2023-04-27T06:48:32.478Z,2.03
2023-04-27T06:51:00.693Z,1.85
2023-04-27T06:53:29.918Z,2.20
2023-04-27T06:55:57.789Z,2.28
2023-04-27T06:58:25.637Z,1.88
2023-04-27T07:00:53.722Z,2.05
2023-04-27T07:03:22.526Z,2.40
2023-04-27T07:05:51.593Z,2.22
2023-04-27T07:08:19.586Z,2.40
2023-04-27T07:10:48.810Z,2.60
2023-04-27T07:13:16.775Z,2.40
2023-04-27T07:15:44.931Z,2.15
2023-04-27T07:18:13.173Z,2.05
2023-04-27T07:20:42.369Z,1.95
2023-04-27T07:23:10.742Z,1.95
2023-04-27T07:25:40.264Z,2.10
2023-04-27T07:28:09.898Z,2.00
2023-04-27T07:30:38.083Z,1.75
2023-04-27T07:33:07.258Z,2.60
2023-04-27T07:35:35.600Z,2.25
2023-04-27T07:38:03.867Z,2.60
2023-04-27T07:40:32.814Z,2.10
2023-04-27T07:43:00.954Z,2.50
2023-04-27T07:45:32.860Z,2.00
2023-04-27T07:48:02.233Z,2.22
2023-04-27T07:50:30.942Z,2.63
2023-04-27T07:52:59.320Z,2.00
2023-04-27T07:55:28.669Z,1.90
2023-04-27T07:57:57.097Z,3.10
2023-04-27T08:00:26.399Z,2.50
2023-04-27T08:02:56.571Z,2.25
2023-04-27T08:05:24.941Z,2.03
2023-04-27T08:07:54.196Z,2.15
2023-04-27T08:10:22.863Z,2.60
2023-04-27T08:12:50.986Z,2.00
2023-04-27T08:15:18.965Z,2.22
2023-04-27T08:17:47.349Z,2.28
2023-04-27T08:20:16.837Z,1.90
2023-04-27T08:22:45.031Z,2.30
2023-04-27T08:25:12.989Z,2.45
2023-04-27T08:27:41.225Z,2.13
2023-04-27T08:30:10.354Z,2.10
2023-04-27T08:32:38.375Z,2.45
2023-04-27T08:35:07.171Z,2.10
2023-04-27T08:37:36.624Z,2.42
2023-04-27T08:40:08.263Z,2.20
2023-04-27T08:42:36.404Z,1.98
2023-04-27T08:45:05.055Z,2.50
2023-04-27T08:47:42.556Z,2.03
2023-04-27T08:50:12.719Z,2.00
2023-04-27T08:52:44.747Z,2.10
2023-04-27T08:55:15.102Z,2.22
2023-04-27T08:57:55.251Z,1.70
2023-04-27T09:00:23.656Z,1.77
2023-04-27T09:02:51.803Z,2.22
2023-04-27T09:05:20.578Z,1.83
2023-04-27T09:08:00.969Z,1.90
2023-04-27T09:10:30.115Z,2.00
2023-04-27T09:13:02.052Z,1.77
2023-04-27T09:15:30.186Z,1.70
2023-04-27T09:17:58.968Z,1.60
2023-04-27T09:20:28.718Z,2.00
2023-04-27T09:22:58.385Z,1.80
2023-04-27T09:25:30.059Z,1.75
2023-04-27T09:27:59.019Z,1.98
2023-04-27T09:30:27.247Z,2.00
2023-04-27T09:33:26.706Z,2.67
2023-04-27T09:35:55.305Z,1.92
2023-04-27T09:38:24.166Z,2.25
2023-04-27T09:40:54.747Z,1.92
2023-04-27T09:43:23.360Z,1.95
2023-04-27T09:45:52.197Z,1.80
2023-04-27T09:48:21.693Z,1.77
2023-04-27T09:50:51.424Z,1.85
2023-04-27T09:53:21.776Z,1.60
2023-04-27T09:56:00.868Z,1.48
2023-04-27T09:58:48.498Z,2.00
2023-04-27T10:01:26.323Z,1.73
2023-04-27T10:04:06.539Z,1.92
2023-04-27T10:07:02.150Z,1.52
2023-04-27T10:09:37.073Z,1.67
2023-04-27T10:12:20.815Z,1.35
2023-04-27T10:14:53.534Z,1.45
2023-04-27T10:17:26.550Z,1.20
2023-04-27T10:19:58.455Z,1.25
2023-04-27T10:22:39.230Z,1.35
2023-04-27T10:25:16.536Z,1.55
2023-04-27T10:27:52.200Z,1.60
2023-04-27T10:30:21.411Z,1.52
2023-04-27T10:32:53.808Z,1.55
2023-04-27T10:35:23.130Z,1.48
2023-04-27T10:37:52.196Z,1.20
2023-04-27T10:40:20.139Z,1.60
2023-04-27T10:42:50.178Z,1.45
2023-04-27T10:45:31.545Z,1.60
2023-04-27T10:48:02.053Z,1.80
2023-04-27T10:50:31.380Z,1.50
2023-04-27T10:53:02.528Z,1.10
2023-04-27T10:55:30.856Z,1.27
2023-04-27T10:58:00.296Z,1.70
2023-04-27T11:00:30.053Z,1.38
2023-04-27T11:02:59.466Z,1.60
2023-04-27T11:05:33.028Z,1.60
2023-04-27T11:08:08.376Z,1.40
2023-04-27T11:10:39.523Z,1.30
2023-04-27T11:13:11.378Z,1.60
2023-04-27T11:15:46.957Z,1.40
2023-04-27T11:18:15.713Z,1.45
2023-04-27T11:20:44.885Z,1.45
2023-04-27T11:23:12.928Z,1.90
2023-04-27T11:25:40.819Z,1.50
2023-04-27T11:28:19.501Z,1.25
2023-04-27T11:30:47.742Z,1.50
2023-04-27T11:33:15.967Z,1.42
2023-04-27T11:35:43.872Z,1.65
2023-04-27T11:38:18.103Z,1.40
2023-04-27T11:40:46.206Z,1.60
2023-04-27T11:43:14.871Z,1.38
2023-04-27T11:45:47.295Z,1.45
2023-04-27T11:48:15.953Z,1.38
2023-04-27T11:50:47.411Z,1.42
2023-04-27T11:53:17.413Z,1.30
2023-04-27T11:55:52.997Z,1.33
2023-04-27T11:58:22.281Z,1.90
2023-04-27T12:00:51.555Z,1.67
2023-04-27T12:03:19.614Z,1.60
2023-04-27T12:05:51.604Z,1.42
2023-04-27T12:08:19.693Z,1.30
2023-04-27T12:10:47.831Z,1.30
2023-04-27T12:13:16.204Z,1.60
2023-04-27T12:15:44.659Z,1.80
2023-04-27T12:18:14.139Z,0.95
2023-04-27T12:20:42.250Z,1.30
2023-04-27T12:23:10.385Z,1.27
2023-04-27T12:25:38.493Z,1.40
2023-04-27T12:28:06.462Z,2.60
2023-04-27T12:30:34.388Z,1.52
2023-04-27T12:33:06.763Z,1.85
2023-04-27T12:35:36.766Z,1.30
2023-04-27T12:38:04.911Z,1.40
2023-04-27T12:40:32.870Z,1.70
2023-04-27T12:43:01.549Z,1.25
2023-04-27T12:45:29.546Z,1.33
2023-04-27T12:48:02.523Z,1.50
2023-04-27T12:50:32.574Z,1.60
2023-04-27T12:53:02.030Z,1.35
2023-04-27T12:55:34.090Z,1.38
2023-04-27T12:58:02.512Z,1.70
2023-04-27T13:00:30.587Z,1.30
2023-04-27T13:02:59.387Z,1.30
2023-04-27T13:05:28.300Z,1.40
2023-04-27T13:07:57.798Z,1.58
2023-04-27T13:10:27.108Z,1.23
2023-04-27T13:12:55.811Z,1.23
2023-04-27T13:15:23.693Z,1.55
2023-04-27T13:17:53.193Z,1.83
2023-04-27T13:20:21.393Z,1.27
2023-04-27T13:22:49.311Z,1.38
2023-04-27T13:25:19.787Z,1.30
2023-04-27T13:27:49.175Z,1.38
2023-04-27T13:30:17.207Z,1.33
2023-04-27T13:32:45.038Z,1.50
2023-04-27T13:35:12.956Z,1.10
2023-04-27T13:37:42.328Z,1.00
2023-04-27T13:40:12.559Z,1.40
2023-04-27T13:42:41.130Z,1.27
2023-04-27T13:45:11.473Z,1.08
2023-04-27T13:47:40.692Z,1.23
2023-04-27T13:50:11.066Z,1.13
2023-04-27T13:52:39.726Z,1.17
2023-04-27T13:55:09.828Z,0.90
2023-04-27T13:57:38.453Z,1.10
2023-04-27T14:00:08.035Z,1.00
2023-04-27T14:02:38.738Z,1.13
2023-04-27T14:05:07.789Z,0.90
2023-04-27T14:07:36.522Z,1.30
2023-04-27T14:10:05.303Z,1.20
2023-04-27T14:12:33.508Z,1.20
2023-04-27T14:15:01.416Z,1.48
2023-04-27T14:17:29.363Z,1.13
2023-04-27T14:19:58.628Z,1.10
2023-04-27T14:22:26.585Z,0.93
2023-04-27T14:24:56.404Z,1.10
2023-04-27T14:27:24.623Z,0.82
2023-04-27T14:29:52.612Z,1.60
2023-04-27T14:32:21.205Z,0.85
2023-04-27T14:34:49.340Z,1.50
2023-04-27T14:37:18.649Z,0.85
2023-04-27T14:39:46.910Z,1.17
2023-04-27T14:42:14.887Z,1.30
2023-04-27T14:44:42.744Z,1.20
2023-04-27T14:47:10.774Z,1.02
2023-04-27T14:49:38.898Z,1.23
2023-04-27T14:52:06.974Z,1.20
2023-04-27T14:54:38.421Z,1.20
2023-04-27T14:57:06.396Z,1.20
2023-04-27T14:59:34.619Z,1.30
2023-04-27T15:02:02.963Z,1.00
2023-04-27T15:04:30.998Z,1.00
2023-04-27T15:06:58.859Z,1.10
2023-04-27T15:09:26.794Z,1.13
2023-04-27T15:11:56.078Z,1.15
2023-04-27T15:14:23.966Z,1.20
2023-04-27T15:16:52.162Z,0.98
2023-04-27T15:19:20.046Z,1.20
2023-04-27T15:21:48.614Z,1.08
2023-04-27T15:24:16.515Z,1.17
2023-04-27T15:26:44.423Z,0.90
2023-04-27T15:29:13.836Z,1.35
2023-04-27T15:31:41.876Z,1.15
2023-04-27T15:34:09.845Z,1.30
2023-04-27T15:36:37.780Z,1.20
2023-04-27T15:39:08.827Z,1.30
2023-04-27T15:41:38.088Z,1.05
2023-04-27T15:44:06.908Z,1.10
2023-04-27T15:46:36.469Z,1.30
2023-04-27T15:49:04.355Z,0.88
2023-04-27T15:51:32.377Z,1.17
2023-04-27T15:54:00.454Z,1.50
2023-04-27T15:56:30.579Z,1.35
2023-04-27T15:58:58.794Z,1.20
2023-04-27T16:01:27.627Z,1.40
2023-04-27T16:03:57.391Z,1.30
2023-04-27T16:06:33.156Z,1.50
2023-04-27T16:09:03.237Z,1.40
2023-04-27T16:11:31.220Z,1.40
2023-04-27T16:13:59.577Z,1.20
2023-04-27T16:16:27.824Z,1.45
2023-04-27T16:18:58.499Z,1.35
2023-04-27T16:21:26.940Z,1.55
2023-04-27T16:23:55.093Z,1.35
2023-04-27T16:26:23.519Z,1.90
2023-04-27T16:28:52.516Z,1.30
2023-04-27T16:31:20.532Z,1.23
2023-04-27T16:33:48.403Z,1.20
2023-04-27T16:36:17.683Z,1.10
2023-04-27T16:38:46.161Z,1.33
2023-04-27T16:41:14.266Z,1.40
2023-04-27T16:43:42.081Z,1.50
2023-04-27T16:46:11.775Z,1.23
2023-04-27T16:48:39.695Z,1.30
2023-04-27T16:51:07.830Z,1.33
2023-04-27T16:53:37.655Z,1.35
2023-04-27T16:56:06.133Z,1.10
2023-04-27T16:58:36.005Z,1.85
2023-04-27T17:01:04.722Z,1.73
2023-04-27T17:03:34.590Z,1.17
2023-04-27T17:06:03.011Z,1.40
2023-04-27T17:08:30.937Z,1.20
2023-04-27T17:11:00.208Z,1.33
2023-04-27T17:13:28.143Z,1.13
2023-04-27T17:15:56.145Z,1.30
2023-04-27T17:18:23.993Z,1.20
2023-04-27T17:20:52.055Z,1.23
2023-04-27T17:23:20.049Z,1.30
2023-04-27T17:25:47.923Z,1.75
2023-04-27T17:28:17.147Z,1.60
2023-04-27T17:30:45.092Z,1.35
2023-04-27T17:33:14.712Z,1.13
2023-04-27T17:35:44.309Z,1.40
2023-04-27T17:38:12.337Z,1.30
2023-04-27T17:40:40.228Z,2.22
2023-04-27T17:43:10.247Z,1.25
2023-04-27T17:45:39.515Z,1.30
2023-04-27T17:48:07.731Z,1.17
2023-04-27T17:50:36.161Z,1.20
2023-04-27T17:53:04.153Z,1.20
2023-04-27T17:55:32.385Z,1.15
2023-04-27T17:58:00.343Z,1.20
2023-04-27T18:00:28.245Z,1.40
2023-04-27T18:02:57.611Z,1.02
2023-04-27T18:05:25.764Z,1.13
2023-04-27T18:07:54.021Z,1.45
2023-04-27T18:10:21.927Z,1.30
2023-04-27T18:12:49.831Z,1.20
2023-04-27T18:15:17.709Z,1.30
2023-04-27T18:17:45.657Z,1.33
2023-04-27T18:20:15.661Z,1.13
2023-04-27T18:22:43.622Z,1.92
2023-04-27T18:25:13.106Z,2.15
2023-04-27T18:27:41.483Z,2.40
2023-04-27T18:30:09.759Z,1.73
2023-04-27T18:32:38.161Z,2.20
2023-04-27T18:35:06.846Z,1.70
2023-04-27T18:37:36.179Z,1.70
2023-04-27T18:40:05.825Z,1.80
2023-04-27T18:42:33.741Z,2.08
2023-04-27T18:45:01.882Z,2.58
2023-04-27T18:47:29.751Z,2.40
2023-04-27T18:49:57.671Z,2.70
2023-04-27T18:52:25.601Z,2.40
2023-04-27T18:54:54.884Z,2.78
2023-04-27T18:57:23.257Z,2.53
2023-04-27T18:59:51.338Z,2.30
2023-04-27T19:02:19.251Z,2.08
2023-04-27T19:04:52.746Z,2.42
2023-04-27T19:07:29.859Z,2.08
2023-04-27T19:09:59.094Z,2.38
2023-04-27T19:12:27.011Z,2.10
2023-04-27T19:14:54.968Z,1.73
2023-04-27T19:17:23.031Z,2.03
2023-04-27T19:19:51.135Z,2.55
2023-04-27T19:22:19.123Z,2.42
2023-04-27T19:24:47.000Z,3.08
2023-04-27T19:27:16.323Z,1.85
2023-04-27T19:29:51.768Z,2.25
2023-04-27T19:32:22.208Z,2.42
2023-04-27T19:34:50.291Z,2.50
2023-04-27T19:37:18.183Z,2.35
2023-04-27T19:39:46.908Z,3.00
2023-04-27T19:42:16.342Z,2.88
2023-04-27T19:44:44.280Z,2.90
2023-04-27T19:47:12.162Z,2.55
2023-04-27T19:49:40.279Z,2.22
2023-04-27T19:52:08.187Z,2.50
2023-04-27T19:54:38.295Z,2.25
2023-04-27T19:57:06.639Z,2.17
2023-04-27T19:59:36.159Z,2.35
2023-04-27T20:02:04.393Z,1.92
2023-04-27T20:04:33.070Z,2.28
2023-04-27T20:07:01.834Z,2.05
2023-04-27T20:09:30.686Z,2.35
2023-04-27T20:11:58.582Z,2.28
2023-04-27T20:14:29.020Z,2.30
2023-04-27T20:16:58.316Z,2.83
2023-04-27T20:19:26.561Z,2.33
2023-04-27T20:21:54.551Z,2.00
2023-04-27T20:24:23.369Z,2.55
2023-04-27T20:26:51.279Z,2.58
2023-04-27T20:29:19.156Z,2.17
2023-04-27T20:31:48.548Z,3.55
2023-04-27T20:34:18.149Z,2.60
2023-04-27T20:36:46.843Z,2.95
2023-04-27T20:39:15.337Z,2.85
2023-04-27T20:41:44.361Z,2.70
2023-04-27T20:44:13.108Z,2.67
2023-04-27T20:46:41.529Z,3.13
2023-04-27T20:49:09.482Z,3.22
2023-04-27T20:51:39.177Z,3.90
2023-04-27T20:54:07.156Z,3.72
2023-04-27T20:56:35.073Z,3.85
2023-04-27T20:59:03.145Z,4.63
2023-04-27T21:01:31.041Z,3.25
2023-04-27T21:03:59.089Z,3.47
2023-04-27T21:06:27.155Z,3.03
2023-04-27T21:08:57.519Z,3.13
2023-04-27T21:11:25.504Z,3.63
2023-04-27T21:13:53.819Z,3.20
2023-04-27T21:16:22.027Z,3.50
2023-04-27T21:18:49.906Z,3.53
2023-04-27T21:21:17.854Z,3.95
2023-04-27T21:23:48.096Z,3.75
2023-04-27T21:26:19.199Z,3.95
2023-04-27T21:28:47.454Z,3.45
2023-04-27T21:31:15.463Z,3.88
2023-04-27T21:33:43.600Z,3.75
2023-04-27T21:36:11.501Z,3.90
2023-04-27T21:38:39.400Z,4.22
2023-04-27T21:41:07.468Z,3.80
2023-04-27T21:43:36.725Z,4.35
2023-04-27T21:46:04.640Z,4.03
2023-04-27T21:48:32.563Z,4.10
2023-04-27T21:51:00.430Z,4.28
2023-04-27T21:53:28.789Z,4.10
2023-04-27T21:55:57.496Z,3.83
2023-04-27T21:58:25.630Z,3.65
2023-04-27T22:00:54.895Z,4.10
2023-04-27T22:03:23.449Z,4.03
2023-04-27T22:05:52.810Z,4.63
2023-04-27T22:08:21.773Z,4.35
2023-04-27T22:10:49.767Z,3.97
2023-04-27T22:13:19.259Z,4.50
2023-04-27T22:15:47.714Z,4.22
2023-04-27T22:18:17.066Z,4.57
2023-04-27T22:20:45.238Z,5.35
2023-04-27T22:23:13.188Z,4.13
2023-04-27T22:25:42.830Z,4.63
2023-04-27T22:28:11.051Z,4.65
2023-04-27T22:30:39.215Z,4.65
2023-04-27T22:33:07.337Z,4.68
2023-04-27T22:35:37.440Z,5.20
2023-04-27T22:38:07.017Z,5.00
2023-04-27T22:40:34.857Z,5.15
2023-04-27T22:43:02.755Z,5.10
2023-04-27T22:45:30.849Z,4.97
2023-04-27T22:47:58.827Z,4.45
2023-04-27T22:50:26.765Z,4.50
2023-04-27T22:52:56.049Z,4.38
2023-04-27T22:55:24.034Z,4.38
2023-04-27T22:57:53.759Z,4.70
2023-04-27T23:00:21.968Z,5.22
2023-04-27T23:02:50.039Z,4.78
2023-04-27T23:05:18.155Z,4.80
2023-04-27T23:07:46.420Z,4.72
2023-04-27T23:10:15.710Z,4.28
2023-04-27T23:12:43.612Z,4.95
2023-04-27T23:15:12.453Z,4.35
2023-04-27T23:17:40.460Z,4.15
2023-04-27T23:20:24.186Z,4.32
2023-04-27T23:22:55.034Z,3.90
2023-04-27T23:25:24.570Z,3.97
2023-04-27T23:27:52.989Z,3.65
2023-04-27T23:30:21.908Z,3.58
2023-04-27T23:32:49.991Z,5.18
2023-04-27T23:35:17.907Z,4.00
2023-04-27T23:37:45.845Z,3.55
2023-04-27T23:40:14.109Z,3.60
2023-04-27T23:42:43.433Z,3.83
2023-04-27T23:45:12.242Z,3.85
2023-04-27T23:47:40.241Z,3.58
2023-04-27T23:50:09.019Z,3.42
2023-04-27T23:52:37.177Z,3.50
2023-04-27T23:55:05.906Z,3.00
2023-04-27T23:57:33.771Z,3.65
